sensor_id;sensor_type;location;lat;lon;timestamp;P1;durP1;ratioP1;P2;durP2;ratioP2
67503;SDS011;54351;49.108;1.502;2023-02-28T00:01:18;152.75;;;143.98;;
67503;SDS011;54351;49.108;1.502;2023-02-28T00:03:44;150.02;;;141.73;;
67503;SDS011;54351;49.108;1.502;2023-02-28T00:06:10;124.22;;;117.18;;
67503;SDS011;54351;49.108;1.502;2023-02-28T00:08:37;126.88;;;119.65;;
67503;SDS011;54351;49.108;1.502;2023-02-28T00:11:04;165.25;;;155.57;;
67503;SDS011;54351;49.108;1.502;2023-02-28T00:13:31;155.52;;;146.98;;
67503;SDS011;54351;49.108;1.502;2023-02-28T00:16:01;143.43;;;135.43;;
67503;SDS011;54351;49.108;1.502;2023-02-28T00:18:28;130.15;;;122.60;;
67503;SDS011;54351;49.108;1.502;2023-02-28T00:20:54;131.70;;;124.40;;
67503;SDS011;54351;49.108;1.502;2023-02-28T00:23:20;128.90;;;121.80;;
67503;SDS011;54351;49.108;1.502;2023-02-28T00:25:46;131.20;;;123.82;;
67503;SDS011;54351;49.108;1.502;2023-02-28T00:28:12;127.47;;;120.03;;
67503;SDS011;54351;49.108;1.502;2023-02-28T00:30:38;124.97;;;117.90;;
67503;SDS011;54351;49.108;1.502;2023-02-28T00:33:05;140.68;;;132.50;;
67503;SDS011;54351;49.108;1.502;2023-02-28T00:35:31;166.73;;;157.27;;
67503;SDS011;54351;49.108;1.502;2023-02-28T00:37:57;143.15;;;134.98;;
67503;SDS011;54351;49.108;1.502;2023-02-28T00:40:23;129.45;;;122.07;;
67503;SDS011;54351;49.108;1.502;2023-02-28T00:42:49;158.68;;;149.82;;
67503;SDS011;54351;49.108;1.502;2023-02-28T00:45:15;164.73;;;155.32;;
67503;SDS011;54351;49.108;1.502;2023-02-28T00:47:41;153.80;;;144.80;;
67503;SDS011;54351;49.108;1.502;2023-02-28T00:50:07;159.43;;;150.65;;
67503;SDS011;54351;49.108;1.502;2023-02-28T00:52:34;160.45;;;151.65;;
67503;SDS011;54351;49.108;1.502;2023-02-28T00:55:00;162.30;;;153.23;;
67503;SDS011;54351;49.108;1.502;2023-02-28T00:57:26;164.23;;;155.18;;
67503;SDS011;54351;49.108;1.502;2023-02-28T00:59:52;180.27;;;170.40;;
67503;SDS011;54351;49.108;1.502;2023-02-28T01:02:21;172.13;;;162.70;;
67503;SDS011;54351;49.108;1.502;2023-02-28T01:04:47;179.05;;;168.82;;
67503;SDS011;54351;49.108;1.502;2023-02-28T01:07:13;206.15;;;194.60;;
67503;SDS011;54351;49.108;1.502;2023-02-28T01:09:40;187.68;;;177.00;;
67503;SDS011;54351;49.108;1.502;2023-02-28T01:12:07;216.20;;;203.52;;
67503;SDS011;54351;49.108;1.502;2023-02-28T01:14:33;230.98;;;217.93;;
67503;SDS011;54351;49.108;1.502;2023-02-28T01:16:59;188.32;;;177.10;;
67503;SDS011;54351;49.108;1.502;2023-02-28T01:19:26;254.45;;;240.25;;
67503;SDS011;54351;49.108;1.502;2023-02-28T01:21:52;195.20;;;184.00;;
67503;SDS011;54351;49.108;1.502;2023-02-28T01:24:18;237.40;;;223.48;;
67503;SDS011;54351;49.108;1.502;2023-02-28T01:26:44;251.32;;;236.55;;
67503;SDS011;54351;49.108;1.502;2023-02-28T01:29:10;222.77;;;209.95;;
67503;SDS011;54351;49.108;1.502;2023-02-28T01:31:36;207.13;;;194.90;;
67503;SDS011;54351;49.108;1.502;2023-02-28T01:34:02;213.77;;;200.40;;
67503;SDS011;54351;49.108;1.502;2023-02-28T01:36:29;256.42;;;241.15;;
67503;SDS011;54351;49.108;1.502;2023-02-28T01:38:55;303.83;;;285.70;;
67503;SDS011;54351;49.108;1.502;2023-02-28T01:41:22;299.67;;;281.88;;
67503;SDS011;54351;49.108;1.502;2023-02-28T01:46:15;212.93;;;200.20;;
67503;SDS011;54351;49.108;1.502;2023-02-28T01:48:42;189.25;;;177.88;;
67503;SDS011;54351;49.108;1.502;2023-02-28T01:51:15;268.95;;;253.00;;
67503;SDS011;54351;49.108;1.502;2023-02-28T01:53:45;257.50;;;242.15;;
67503;SDS011;54351;49.108;1.502;2023-02-28T01:56:13;208.65;;;196.07;;
67503;SDS011;54351;49.108;1.502;2023-02-28T01:58:46;202.07;;;189.80;;
67503;SDS011;54351;49.108;1.502;2023-02-28T02:01:15;176.80;;;165.95;;
67503;SDS011;54351;49.108;1.502;2023-02-28T02:03:47;202.02;;;189.70;;
67503;SDS011;54351;49.108;1.502;2023-02-28T02:06:13;182.48;;;171.43;;
67503;SDS011;54351;49.108;1.502;2023-02-28T02:08:39;202.73;;;190.45;;
67503;SDS011;54351;49.108;1.502;2023-02-28T02:11:07;162.35;;;152.55;;
67503;SDS011;54351;49.108;1.502;2023-02-28T02:18:57;180.55;;;169.60;;
67503;SDS011;54351;49.108;1.502;2023-02-28T02:34:37;47.45;;;44.08;;
67503;SDS011;54351;49.108;1.502;2023-02-28T02:37:14;79.78;;;74.35;;
67503;SDS011;54351;49.108;1.502;2023-02-28T02:39:47;118.30;;;110.78;;
67503;SDS011;54351;49.108;1.502;2023-02-28T02:42:16;113.57;;;106.00;;
67503;SDS011;54351;49.108;1.502;2023-02-28T02:44:45;130.88;;;122.70;;
67503;SDS011;54351;49.108;1.502;2023-02-28T02:47:15;175.95;;;165.07;;
67503;SDS011;54351;49.108;1.502;2023-02-28T02:49:43;97.18;;;90.90;;
67503;SDS011;54351;49.108;1.502;2023-02-28T02:52:10;106.63;;;99.35;;
67503;SDS011;54351;49.108;1.502;2023-02-28T02:54:40;124.43;;;116.15;;
67503;SDS011;54351;49.108;1.502;2023-02-28T02:57:11;158.55;;;148.73;;
67503;SDS011;54351;49.108;1.502;2023-02-28T02:59:39;143.90;;;135.07;;
67503;SDS011;54351;49.108;1.502;2023-02-28T03:02:06;154.05;;;144.45;;
67503;SDS011;54351;49.108;1.502;2023-02-28T03:04:34;103.57;;;96.60;;
67503;SDS011;54351;49.108;1.502;2023-02-28T03:07:02;96.57;;;90.30;;
67503;SDS011;54351;49.108;1.502;2023-02-28T03:09:28;148.88;;;139.32;;
67503;SDS011;54351;49.108;1.502;2023-02-28T03:11:55;105.07;;;98.13;;
67503;SDS011;54351;49.108;1.502;2023-02-28T03:14:34;83.63;;;77.93;;
67503;SDS011;54351;49.108;1.502;2023-02-28T03:30:04;101.93;;;95.10;;
67503;SDS011;54351;49.108;1.502;2023-02-28T03:32:36;104.03;;;97.65;;
67503;SDS011;54351;49.108;1.502;2023-02-28T03:35:06;88.38;;;82.85;;
67503;SDS011;54351;49.108;1.502;2023-02-28T03:37:35;68.90;;;64.07;;
67503;SDS011;54351;49.108;1.502;2023-02-28T03:40:13;103.38;;;96.88;;
67503;SDS011;54351;49.108;1.502;2023-02-28T03:42:41;94.63;;;88.47;;
67503;SDS011;54351;49.108;1.502;2023-02-28T03:45:10;143.73;;;135.23;;
67503;SDS011;54351;49.108;1.502;2023-02-28T03:47:41;169.40;;;159.32;;
67503;SDS011;54351;49.108;1.502;2023-02-28T03:50:11;145.45;;;136.52;;
67503;SDS011;54351;49.108;1.502;2023-02-28T03:52:40;101.85;;;95.40;;
67503;SDS011;54351;49.108;1.502;2023-02-28T03:55:10;91.93;;;86.00;;
67503;SDS011;54351;49.108;1.502;2023-02-28T03:57:40;111.10;;;104.35;;
67503;SDS011;54351;49.108;1.502;2023-02-28T04:00:17;173.27;;;163.25;;
67503;SDS011;54351;49.108;1.502;2023-02-28T04:02:44;146.50;;;137.23;;
67503;SDS011;54351;49.108;1.502;2023-02-28T04:05:10;228.85;;;215.40;;
67503;SDS011;54351;49.108;1.502;2023-02-28T04:07:37;249.85;;;235.23;;
67503;SDS011;54351;49.108;1.502;2023-02-28T04:10:03;306.45;;;288.15;;
67503;SDS011;54351;49.108;1.502;2023-02-28T04:12:30;182.80;;;172.13;;
67503;SDS011;54351;49.108;1.502;2023-02-28T04:14:56;266.88;;;251.50;;
67503;SDS011;54351;49.108;1.502;2023-02-28T04:17:22;208.10;;;195.15;;
67503;SDS011;54351;49.108;1.502;2023-02-28T04:19:48;162.63;;;152.43;;
67503;SDS011;54351;49.108;1.502;2023-02-28T04:22:14;162.32;;;152.38;;
67503;SDS011;54351;49.108;1.502;2023-02-28T04:24:42;257.58;;;242.45;;
67503;SDS011;54351;49.108;1.502;2023-02-28T04:27:08;275.95;;;259.75;;
67503;SDS011;54351;49.108;1.502;2023-02-28T04:29:35;217.50;;;204.90;;
67503;SDS011;54351;49.108;1.502;2023-02-28T04:32:01;254.85;;;239.48;;
67503;SDS011;54351;49.108;1.502;2023-02-28T04:34:28;274.23;;;258.42;;
67503;SDS011;54351;49.108;1.502;2023-02-28T04:36:56;304.13;;;285.77;;
67503;SDS011;54351;49.108;1.502;2023-02-28T04:39:22;190.30;;;178.77;;
67503;SDS011;54351;49.108;1.502;2023-02-28T04:41:49;209.13;;;196.95;;
67503;SDS011;54351;49.108;1.502;2023-02-28T04:44:15;235.80;;;221.93;;
67503;SDS011;54351;49.108;1.502;2023-02-28T04:46:42;254.75;;;240.05;;
67503;SDS011;54351;49.108;1.502;2023-02-28T04:49:08;262.55;;;247.40;;
67503;SDS011;54351;49.108;1.502;2023-02-28T04:51:34;276.83;;;260.48;;
67503;SDS011;54351;49.108;1.502;2023-02-28T04:54:00;267.50;;;251.48;;
67503;SDS011;54351;49.108;1.502;2023-02-28T04:56:26;224.75;;;211.45;;
67503;SDS011;54351;49.108;1.502;2023-02-28T04:58:52;248.55;;;233.77;;
67503;SDS011;54351;49.108;1.502;2023-02-28T05:01:24;253.48;;;238.20;;
67503;SDS011;54351;49.108;1.502;2023-02-28T05:03:51;302.80;;;284.63;;
67503;SDS011;54351;49.108;1.502;2023-02-28T05:06:17;331.92;;;312.52;;
67503;SDS011;54351;49.108;1.502;2023-02-28T05:08:43;338.88;;;318.85;;
67503;SDS011;54351;49.108;1.502;2023-02-28T05:11:20;365.77;;;344.08;;
67503;SDS011;54351;49.108;1.502;2023-02-28T05:13:46;363.33;;;342.05;;
67503;SDS011;54351;49.108;1.502;2023-02-28T05:16:13;452.65;;;425.75;;
67503;SDS011;54351;49.108;1.502;2023-02-28T05:18:39;438.20;;;412.15;;
67503;SDS011;54351;49.108;1.502;2023-02-28T05:21:05;456.08;;;428.52;;
67503;SDS011;54351;49.108;1.502;2023-02-28T05:23:32;418.05;;;393.10;;
67503;SDS011;54351;49.108;1.502;2023-02-28T05:25:58;420.67;;;395.17;;
67503;SDS011;54351;49.108;1.502;2023-02-28T05:28:24;433.33;;;407.15;;
67503;SDS011;54351;49.108;1.502;2023-02-28T05:30:50;449.92;;;422.83;;
67503;SDS011;54351;49.108;1.502;2023-02-28T05:33:16;433.42;;;407.25;;
67503;SDS011;54351;49.108;1.502;2023-02-28T05:35:42;397.10;;;373.20;;
67503;SDS011;54351;49.108;1.502;2023-02-28T05:38:08;433.73;;;407.05;;
67503;SDS011;54351;49.108;1.502;2023-02-28T05:40:34;373.58;;;350.83;;
67503;SDS011;54351;49.108;1.502;2023-02-28T05:43:00;420.02;;;394.27;;
67503;SDS011;54351;49.108;1.502;2023-02-28T05:45:26;457.85;;;429.50;;
67503;SDS011;54351;49.108;1.502;2023-02-28T05:47:53;496.73;;;465.67;;
67503;SDS011;54351;49.108;1.502;2023-02-28T05:50:19;453.25;;;424.73;;
67503;SDS011;54351;49.108;1.502;2023-02-28T05:52:49;471.00;;;441.45;;
67503;SDS011;54351;49.108;1.502;2023-02-28T05:55:15;456.00;;;427.20;;
67503;SDS011;54351;49.108;1.502;2023-02-28T05:57:41;364.52;;;341.63;;
67503;SDS011;54351;49.108;1.502;2023-02-28T06:00:08;443.92;;;416.00;;
67503;SDS011;54351;49.108;1.502;2023-02-28T06:02:34;428.92;;;401.73;;
67503;SDS011;54351;49.108;1.502;2023-02-28T06:05:00;327.63;;;306.70;;
67503;SDS011;54351;49.108;1.502;2023-02-28T06:07:26;474.98;;;445.83;;
67503;SDS011;54351;49.108;1.502;2023-02-28T06:09:52;420.95;;;394.50;;
67503;SDS011;54351;49.108;1.502;2023-02-28T06:12:18;389.23;;;364.65;;
67503;SDS011;54351;49.108;1.502;2023-02-28T06:14:45;474.98;;;444.70;;
67503;SDS011;54351;49.108;1.502;2023-02-28T06:17:11;331.55;;;309.88;;
67503;SDS011;54351;49.108;1.502;2023-02-28T06:19:37;315.23;;;294.70;;
67503;SDS011;54351;49.108;1.502;2023-02-28T06:22:04;398.48;;;372.67;;
67503;SDS011;54351;49.108;1.502;2023-02-28T06:24:30;460.00;;;430.75;;
67503;SDS011;54351;49.108;1.502;2023-02-28T06:26:56;402.92;;;377.50;;
67503;SDS011;54351;49.108;1.502;2023-02-28T06:29:29;505.30;;;473.67;;
67503;SDS011;54351;49.108;1.502;2023-02-28T06:31:55;476.35;;;445.88;;
67503;SDS011;54351;49.108;1.502;2023-02-28T06:34:21;450.77;;;422.10;;
67503;SDS011;54351;49.108;1.502;2023-02-28T06:36:49;454.80;;;425.85;;
67503;SDS011;54351;49.108;1.502;2023-02-28T06:39:16;413.02;;;386.63;;
67503;SDS011;54351;49.108;1.502;2023-02-28T06:41:42;375.33;;;351.20;;
67503;SDS011;54351;49.108;1.502;2023-02-28T06:44:14;390.50;;;365.38;;
67503;SDS011;54351;49.108;1.502;2023-02-28T06:46:41;464.33;;;434.80;;
67503;SDS011;54351;49.108;1.502;2023-02-28T06:49:07;400.30;;;374.73;;
67503;SDS011;54351;49.108;1.502;2023-02-28T06:51:34;479.17;;;448.83;;
67503;SDS011;54351;49.108;1.502;2023-02-28T06:54:01;425.45;;;398.33;;
67503;SDS011;54351;49.108;1.502;2023-02-28T06:56:27;323.02;;;301.77;;
67503;SDS011;54351;49.108;1.502;2023-02-28T06:58:53;381.42;;;356.92;;
67503;SDS011;54351;49.108;1.502;2023-02-28T07:01:19;433.20;;;405.98;;
67503;SDS011;54351;49.108;1.502;2023-02-28T07:03:47;424.05;;;397.20;;
67503;SDS011;54351;49.108;1.502;2023-02-28T07:06:17;366.50;;;343.17;;
67503;SDS011;54351;49.108;1.502;2023-02-28T07:08:43;417.02;;;390.35;;
67503;SDS011;54351;49.108;1.502;2023-02-28T07:11:09;426.17;;;399.58;;
67503;SDS011;54351;49.108;1.502;2023-02-28T07:13:36;449.92;;;421.23;;
67503;SDS011;54351;49.108;1.502;2023-02-28T07:16:03;474.40;;;444.02;;
67503;SDS011;54351;49.108;1.502;2023-02-28T07:18:30;435.77;;;407.85;;
67503;SDS011;54351;49.108;1.502;2023-02-28T07:20:56;477.17;;;446.75;;
67503;SDS011;54351;49.108;1.502;2023-02-28T07:23:23;414.63;;;387.63;;
67503;SDS011;54351;49.108;1.502;2023-02-28T07:25:49;361.75;;;338.80;;
67503;SDS011;54351;49.108;1.502;2023-02-28T07:28:16;379.48;;;355.33;;
67503;SDS011;54351;49.108;1.502;2023-02-28T07:30:42;436.73;;;408.42;;
67503;SDS011;54351;49.108;1.502;2023-02-28T07:33:08;378.98;;;354.85;;
67503;SDS011;54351;49.108;1.502;2023-02-28T07:35:34;465.02;;;435.20;;
67503;SDS011;54351;49.108;1.502;2023-02-28T07:38:00;396.83;;;370.75;;
67503;SDS011;54351;49.108;1.502;2023-02-28T07:40:27;408.90;;;381.83;;
67503;SDS011;54351;49.108;1.502;2023-02-28T07:42:54;300.02;;;280.42;;
67503;SDS011;54351;49.108;1.502;2023-02-28T07:45:20;223.70;;;208.18;;
67503;SDS011;54351;49.108;1.502;2023-02-28T07:47:46;286.23;;;267.05;;
67503;SDS011;54351;49.108;1.502;2023-02-28T07:50:13;227.18;;;211.63;;
67503;SDS011;54351;49.108;1.502;2023-02-28T07:52:39;194.23;;;180.70;;
67503;SDS011;54351;49.108;1.502;2023-02-28T07:55:07;218.95;;;203.98;;
67503;SDS011;54351;49.108;1.502;2023-02-28T07:57:34;188.63;;;175.70;;
67503;SDS011;54351;49.108;1.502;2023-02-28T08:00:00;158.45;;;147.25;;
67503;SDS011;54351;49.108;1.502;2023-02-28T08:02:28;164.20;;;152.65;;
67503;SDS011;54351;49.108;1.502;2023-02-28T08:04:54;177.63;;;164.98;;
67503;SDS011;54351;49.108;1.502;2023-02-28T08:07:20;198.77;;;184.73;;
67503;SDS011;54351;49.108;1.502;2023-02-28T08:09:46;176.27;;;163.45;;
67503;SDS011;54351;49.108;1.502;2023-02-28T08:12:12;187.00;;;173.98;;
67503;SDS011;54351;49.108;1.502;2023-02-28T08:14:38;245.75;;;228.63;;
67503;SDS011;54351;49.108;1.502;2023-02-28T08:17:05;234.48;;;217.68;;
67503;SDS011;54351;49.108;1.502;2023-02-28T08:19:31;179.60;;;166.48;;
67503;SDS011;54351;49.108;1.502;2023-02-28T08:21:57;262.38;;;243.63;;
67503;SDS011;54351;49.108;1.502;2023-02-28T08:24:23;335.98;;;311.25;;
67503;SDS011;54351;49.108;1.502;2023-02-28T08:26:50;188.38;;;174.43;;
67503;SDS011;54351;49.108;1.502;2023-02-28T08:29:16;211.00;;;196.10;;
67503;SDS011;54351;49.108;1.502;2023-02-28T08:31:42;186.85;;;174.32;;
67503;SDS011;54351;49.108;1.502;2023-02-28T08:34:09;247.63;;;231.25;;
67503;SDS011;54351;49.108;1.502;2023-02-28T08:36:35;235.10;;;219.48;;
67503;SDS011;54351;49.108;1.502;2023-02-28T08:39:02;275.38;;;257.15;;
67503;SDS011;54351;49.108;1.502;2023-02-28T08:41:28;278.80;;;260.52;;
67503;SDS011;54351;49.108;1.502;2023-02-28T08:43:54;244.07;;;227.90;;
67503;SDS011;54351;49.108;1.502;2023-02-28T08:46:20;234.30;;;219.43;;
67503;SDS011;54351;49.108;1.502;2023-02-28T08:48:47;281.48;;;264.30;;
67503;SDS011;54351;49.108;1.502;2023-02-28T08:51:14;243.10;;;228.05;;
67503;SDS011;54351;49.108;1.502;2023-02-28T08:53:47;222.50;;;208.43;;
67503;SDS011;54351;49.108;1.502;2023-02-28T08:56:16;249.15;;;233.93;;
67503;SDS011;54351;49.108;1.502;2023-02-28T08:58:42;284.40;;;268.05;;
67503;SDS011;54351;49.108;1.502;2023-02-28T09:01:13;289.75;;;273.45;;
67503;SDS011;54351;49.108;1.502;2023-02-28T09:03:40;237.48;;;222.40;;
67503;SDS011;54351;49.108;1.502;2023-02-28T09:06:07;195.65;;;184.02;;
67503;SDS011;54351;49.108;1.502;2023-02-28T09:08:33;123.82;;;115.78;;
67503;SDS011;54351;49.108;1.502;2023-02-28T09:10:59;209.60;;;197.10;;
67503;SDS011;54351;49.108;1.502;2023-02-28T09:13:27;116.65;;;109.60;;
67503;SDS011;54351;49.108;1.502;2023-02-28T09:15:53;164.25;;;154.20;;
67503;SDS011;54351;49.108;1.502;2023-02-28T09:18:20;68.55;;;63.47;;
67503;SDS011;54351;49.108;1.502;2023-02-28T09:20:46;31.55;;;28.70;;
67503;SDS011;54351;49.108;1.502;2023-02-28T09:23:12;47.97;;;44.15;;
67503;SDS011;54351;49.108;1.502;2023-02-28T09:25:44;45.75;;;42.15;;
67503;SDS011;54351;49.108;1.502;2023-02-28T09:28:11;45.92;;;42.25;;
67503;SDS011;54351;49.108;1.502;2023-02-28T09:30:37;41.67;;;38.13;;
67503;SDS011;54351;49.108;1.502;2023-02-28T09:33:03;62.10;;;57.90;;
67503;SDS011;54351;49.108;1.502;2023-02-28T09:35:29;254.90;;;239.70;;
67503;SDS011;54351;49.108;1.502;2023-02-28T09:37:55;373.63;;;350.63;;
67503;SDS011;54351;49.108;1.502;2023-02-28T09:40:23;242.38;;;228.05;;
67503;SDS011;54351;49.108;1.502;2023-02-28T09:42:51;611.15;;;569.80;;
67503;SDS011;54351;49.108;1.502;2023-02-28T09:45:28;494.00;;;462.10;;
67503;SDS011;54351;49.108;1.502;2023-02-28T09:47:59;498.00;;;464.88;;
67503;SDS011;54351;49.108;1.502;2023-02-28T09:50:36;520.67;;;485.65;;
67503;SDS011;54351;49.108;1.502;2023-02-28T09:53:06;610.60;;;567.63;;
67503;SDS011;54351;49.108;1.502;2023-02-28T09:55:42;578.42;;;535.58;;
67503;SDS011;54351;49.108;1.502;2023-02-28T09:58:18;589.60;;;542.83;;
67503;SDS011;54351;49.108;1.502;2023-02-28T10:00:46;521.67;;;476.90;;
67503;SDS011;54351;49.108;1.502;2023-02-28T10:03:25;497.35;;;457.95;;
67503;SDS011;54351;49.108;1.502;2023-02-28T10:08:38;301.90;;;277.25;;
67503;SDS011;54351;49.108;1.502;2023-02-28T10:11:10;428.08;;;392.33;;
67503;SDS011;54351;49.108;1.502;2023-02-28T10:16:11;299.10;;;275.30;;
67503;SDS011;54351;49.108;1.502;2023-02-28T10:19:02;221.52;;;209.07;;
67503;SDS011;54351;49.108;1.502;2023-02-28T10:21:32;255.05;;;240.80;;
67503;SDS011;54351;49.108;1.502;2023-02-28T10:24:19;224.82;;;212.15;;
67503;SDS011;54351;49.108;1.502;2023-02-28T10:26:46;259.15;;;243.02;;
67503;SDS011;54351;49.108;1.502;2023-02-28T10:29:13;226.27;;;213.05;;
67503;SDS011;54351;49.108;1.502;2023-02-28T10:31:39;289.92;;;273.52;;
67503;SDS011;54351;49.108;1.502;2023-02-28T10:34:05;306.35;;;288.92;;
67503;SDS011;54351;49.108;1.502;2023-02-28T10:36:31;263.95;;;248.75;;
67503;SDS011;54351;49.108;1.502;2023-02-28T10:38:58;296.13;;;279.00;;
67503;SDS011;54351;49.108;1.502;2023-02-28T10:41:29;281.05;;;264.67;;
67503;SDS011;54351;49.108;1.502;2023-02-28T10:44:12;180.05;;;169.18;;
67503;SDS011;54351;49.108;1.502;2023-02-28T10:46:39;180.35;;;169.50;;
67503;SDS011;54351;49.108;1.502;2023-02-28T10:49:06;281.05;;;264.52;;
67503;SDS011;54351;49.108;1.502;2023-02-28T10:51:38;85.55;;;80.28;;
67503;SDS011;54351;49.108;1.502;2023-02-28T10:54:05;152.82;;;143.57;;
67503;SDS011;54351;49.108;1.502;2023-02-28T10:56:31;66.35;;;62.10;;
67503;SDS011;54351;49.108;1.502;2023-02-28T11:01:40;65.60;;;61.55;;
67503;SDS011;54351;49.108;1.502;2023-02-28T11:04:32;79.53;;;74.93;;
67503;SDS011;54351;49.108;1.502;2023-02-28T11:07:04;64.78;;;61.00;;
67503;SDS011;54351;49.108;1.502;2023-02-28T11:09:37;69.35;;;65.30;;
67503;SDS011;54351;49.108;1.502;2023-02-28T11:12:04;57.03;;;53.60;;
67503;SDS011;54351;49.108;1.502;2023-02-28T11:14:47;76.55;;;72.05;;
67503;SDS011;54351;49.108;1.502;2023-02-28T11:17:21;80.55;;;75.55;;
67503;SDS011;54351;49.108;1.502;2023-02-28T11:19:48;78.40;;;73.60;;
67503;SDS011;54351;49.108;1.502;2023-02-28T11:22:22;77.00;;;72.43;;
67503;SDS011;54351;49.108;1.502;2023-02-28T11:24:50;95.57;;;89.78;;
67503;SDS011;54351;49.108;1.502;2023-02-28T11:29:55;90.70;;;85.18;;
67503;SDS011;54351;49.108;1.502;2023-02-28T11:32:23;93.47;;;87.90;;
67503;SDS011;54351;49.108;1.502;2023-02-28T11:37:34;85.63;;;80.18;;
67503;SDS011;54351;49.108;1.502;2023-02-28T11:40:01;119.80;;;112.20;;
67503;SDS011;54351;49.108;1.502;2023-02-28T11:47:53;186.60;;;175.45;;
67503;SDS011;54351;49.108;1.502;2023-02-28T11:52:54;102.80;;;96.20;;
67503;SDS011;54351;49.108;1.502;2023-02-28T11:55:24;96.57;;;90.50;;
67503;SDS011;54351;49.108;1.502;2023-02-28T12:00:27;90.18;;;84.68;;
67503;SDS011;54351;49.108;1.502;2023-02-28T12:11:06;189.38;;;178.25;;
67503;SDS011;54351;49.108;1.502;2023-02-28T12:13:46;181.27;;;170.45;;
67503;SDS011;54351;49.108;1.502;2023-02-28T12:18:59;187.20;;;175.88;;
67503;SDS011;54351;49.108;1.502;2023-02-28T12:27:03;207.20;;;194.98;;
67503;SDS011;54351;49.108;1.502;2023-02-28T12:29:39;206.98;;;194.38;;
67503;SDS011;54351;49.108;1.502;2023-02-28T12:32:18;200.35;;;188.77;;
67503;SDS011;54351;49.108;1.502;2023-02-28T12:34:51;225.75;;;212.60;;
67503;SDS011;54351;49.108;1.502;2023-02-28T12:39:51;246.35;;;231.52;;
67503;SDS011;54351;49.108;1.502;2023-02-28T12:42:27;245.98;;;231.43;;
67503;SDS011;54351;49.108;1.502;2023-02-28T12:44:56;242.93;;;228.40;;
67503;SDS011;54351;49.108;1.502;2023-02-28T12:47:25;224.57;;;211.88;;
67503;SDS011;54351;49.108;1.502;2023-02-28T12:49:53;205.02;;;193.30;;
67503;SDS011;54351;49.108;1.502;2023-02-28T12:55:12;197.25;;;186.10;;
67503;SDS011;54351;49.108;1.502;2023-02-28T12:58:24;127.30;;;119.65;;
67503;SDS011;54351;49.108;1.502;2023-02-28T13:00:30;37.28;;;34.92;;
67503;SDS011;54351;49.108;1.502;2023-02-28T13:10:57;92.93;;;87.43;;
67503;SDS011;54351;49.108;1.502;2023-02-28T13:13:24;112.93;;;106.25;;
67503;SDS011;54351;49.108;1.502;2023-02-28T13:16:00;195.13;;;184.02;;
67503;SDS011;54351;49.108;1.502;2023-02-28T13:18:34;181.73;;;171.25;;
67503;SDS011;54351;49.108;1.502;2023-02-28T13:21:02;173.07;;;163.20;;
67503;SDS011;54351;49.108;1.502;2023-02-28T13:23:38;122.75;;;115.47;;
67503;SDS011;54351;49.108;1.502;2023-02-28T13:26:05;130.38;;;122.60;;
67503;SDS011;54351;49.108;1.502;2023-02-28T13:31:13;138.02;;;129.55;;
67503;SDS011;54351;49.108;1.502;2023-02-28T13:38:41;260.75;;;245.60;;
67503;SDS011;54351;49.108;1.502;2023-02-28T13:46:28;169.73;;;159.90;;
67503;SDS011;54351;49.108;1.502;2023-02-28T13:48:55;128.50;;;121.00;;
67503;SDS011;54351;49.108;1.502;2023-02-28T13:51:55;142.50;;;133.88;;
67503;SDS011;54351;49.108;1.502;2023-02-28T13:54:20;180.27;;;169.90;;
67503;SDS011;54351;49.108;1.502;2023-02-28T13:56:50;167.88;;;158.27;;
67503;SDS011;54351;49.108;1.502;2023-02-28T13:59:21;107.68;;;101.60;;
67503;SDS011;54351;49.108;1.502;2023-02-28T14:02:06;172.07;;;162.43;;
67503;SDS011;54351;49.108;1.502;2023-02-28T14:07:05;90.90;;;85.50;;
67503;SDS011;54351;49.108;1.502;2023-02-28T14:12:24;37.58;;;35.33;;
67503;SDS011;54351;49.108;1.502;2023-02-28T14:17:14;56.67;;;53.35;;
67503;SDS011;54351;49.108;1.502;2023-02-28T14:19:42;39.67;;;37.15;;
67503;SDS011;54351;49.108;1.502;2023-02-28T14:38:02;29.35;;;27.48;;
67503;SDS011;54351;49.108;1.502;2023-02-28T14:40:35;35.95;;;33.40;;
67503;SDS011;54351;49.108;1.502;2023-02-28T14:43:03;39.67;;;37.08;;
67503;SDS011;54351;49.108;1.502;2023-02-28T14:45:30;29.60;;;27.67;;
67503;SDS011;54351;49.108;1.502;2023-02-28T14:47:56;30.33;;;28.00;;
67503;SDS011;54351;49.108;1.502;2023-02-28T14:50:24;29.02;;;27.17;;
67503;SDS011;54351;49.108;1.502;2023-02-28T14:52:53;27.00;;;25.23;;
67503;SDS011;54351;49.108;1.502;2023-02-28T14:55:25;23.38;;;21.80;;
67503;SDS011;54351;49.108;1.502;2023-02-28T14:57:54;33.25;;;31.02;;
67503;SDS011;54351;49.108;1.502;2023-02-28T15:00:30;40.85;;;38.28;;
67503;SDS011;54351;49.108;1.502;2023-02-28T15:02:57;45.78;;;42.95;;
67503;SDS011;54351;49.108;1.502;2023-02-28T15:05:33;58.22;;;54.65;;
67503;SDS011;54351;49.108;1.502;2023-02-28T15:08:14;39.60;;;37.10;;
67503;SDS011;54351;49.108;1.502;2023-02-28T15:10:44;57.15;;;53.53;;
67503;SDS011;54351;49.108;1.502;2023-02-28T15:13:12;78.13;;;73.53;;
67503;SDS011;54351;49.108;1.502;2023-02-28T15:15:41;46.45;;;43.50;;
67503;SDS011;54351;49.108;1.502;2023-02-28T15:18:10;29.33;;;27.42;;
67503;SDS011;54351;49.108;1.502;2023-02-28T15:20:40;27.27;;;25.52;;
67503;SDS011;54351;49.108;1.502;2023-02-28T15:23:07;32.33;;;30.08;;
67503;SDS011;54351;49.108;1.502;2023-02-28T15:25:34;50.72;;;47.72;;
67503;SDS011;54351;49.108;1.502;2023-02-28T15:28:01;51.22;;;47.92;;
67503;SDS011;54351;49.108;1.502;2023-02-28T15:30:28;40.72;;;38.13;;
67503;SDS011;54351;49.108;1.502;2023-02-28T15:33:29;28.52;;;26.70;;
67503;SDS011;54351;49.108;1.502;2023-02-28T15:35:47;30.33;;;28.02;;
67503;SDS011;54351;49.108;1.502;2023-02-28T15:38:33;33.28;;;31.02;;
67503;SDS011;54351;49.108;1.502;2023-02-28T15:40:59;51.50;;;47.95;;
67503;SDS011;54351;49.108;1.502;2023-02-28T15:43:27;39.80;;;37.35;;
67503;SDS011;54351;49.108;1.502;2023-02-28T15:46:02;29.27;;;27.38;;
67503;SDS011;54351;49.108;1.502;2023-02-28T15:51:16;25.60;;;24.00;;
67503;SDS011;54351;49.108;1.502;2023-02-28T15:53:45;18.52;;;17.08;;
67503;SDS011;54351;49.108;1.502;2023-02-28T15:56:23;22.90;;;21.38;;
67503;SDS011;54351;49.108;1.502;2023-02-28T15:58:57;29.42;;;27.48;;
67503;SDS011;54351;49.108;1.502;2023-02-28T16:01:31;12.05;;;11.00;;
67503;SDS011;54351;49.108;1.502;2023-02-28T16:04:06;16.02;;;14.63;;
67503;SDS011;54351;49.108;1.502;2023-02-28T16:06:34;22.52;;;20.98;;
67503;SDS011;54351;49.108;1.502;2023-02-28T16:09:07;23.83;;;22.27;;
67503;SDS011;54351;49.108;1.502;2023-02-28T16:11:35;22.88;;;21.27;;
67503;SDS011;54351;49.108;1.502;2023-02-28T16:14:05;23.00;;;21.30;;
67503;SDS011;54351;49.108;1.502;2023-02-28T16:16:31;16.23;;;15.02;;
67503;SDS011;54351;49.108;1.502;2023-02-28T16:18:58;24.75;;;22.80;;